createdAt,value
2023-02-02T00:01:55.628Z,98045.50
2023-02-02T00:04:31.041Z,98037.13
2023-02-02T00:06:59.400Z,98034.13
2023-02-02T00:09:32.106Z,98022.19
2023-02-02T00:12:00.909Z,98023.00
2023-02-02T00:14:28.558Z,98029.69
2023-02-02T00:16:57.267Z,98027.56
2023-02-02T00:19:33.678Z,98023.50
2023-02-02T00:22:00.823Z,98016.97
2023-02-02T00:24:28.207Z,98017.91
2023-02-02T00:27:00.083Z,98014.28
2023-02-02T00:29:31.607Z,98008.34
2023-02-02T00:31:59.044Z,98004.47
2023-02-02T00:34:26.218Z,98011.41
2023-02-02T00:36:53.663Z,98014.16
2023-02-02T00:39:26.375Z,98015.38
2023-02-02T00:41:54.361Z,98007.06
2023-02-02T00:44:40.298Z,98008.00
2023-02-02T00:47:07.477Z,98013.31
2023-02-02T00:49:34.605Z,98020.00
2023-02-02T00:52:01.832Z,98011.75
2023-02-02T00:54:29.457Z,98006.97
2023-02-02T00:56:56.457Z,98002.25
2023-02-02T00:59:23.557Z,98010.44
2023-02-02T01:01:50.713Z,98007.41
2023-02-02T01:04:17.893Z,98002.25
2023-02-02T01:06:45.145Z,97992.97
2023-02-02T01:09:12.320Z,97988.22
2023-02-02T01:11:39.445Z,97987.97
2023-02-02T01:14:06.706Z,97987.38
2023-02-02T01:16:33.859Z,97986.25
2023-02-02T01:19:01.113Z,97988.84
2023-02-02T01:21:28.275Z,97991.38
2023-02-02T01:23:55.364Z,97999.31
2023-02-02T01:26:22.507Z,97992.69
2023-02-02T01:28:49.689Z,97987.09
2023-02-02T01:31:20.778Z,97982.03
2023-02-02T01:33:50.064Z,97975.97
2023-02-02T01:36:21.431Z,97969.13
2023-02-02T01:38:50.360Z,97973.81
2023-02-02T01:41:22.558Z,97967.56
2023-02-02T01:44:03.467Z,97968.91
2023-02-02T01:46:32.080Z,97962.25
2023-02-02T01:49:19.739Z,97969.47
2023-02-02T01:52:00.831Z,97964.41
2023-02-02T01:54:40.488Z,97969.16
2023-02-02T01:57:19.948Z,97967.91
2023-02-02T01:59:49.834Z,97954.84
2023-02-02T02:02:17.448Z,97961.41
2023-02-02T02:04:44.613Z,97971.78
2023-02-02T02:07:12.459Z,97969.47
2023-02-02T02:09:39.671Z,97973.22
2023-02-02T02:12:16.353Z,97976.91
2023-02-02T02:15:06.668Z,97979.28
2023-02-02T02:17:55.067Z,97971.81
2023-02-02T02:21:14.928Z,97968.34
2023-02-02T02:24:28.418Z,97963.19
2023-02-02T02:27:04.499Z,97962.84
2023-02-02T02:29:50.121Z,97966.59
2023-02-02T02:32:41.793Z,97962.84
2023-02-02T02:35:41.791Z,97960.34
2023-02-02T02:38:31.295Z,97963.88
2023-02-02T02:41:05.988Z,97958.84
2023-02-02T02:43:55.151Z,97964.41
2023-02-02T02:46:23.511Z,97971.09
2023-02-02T02:48:50.661Z,97964.81
2023-02-02T02:51:54.263Z,97959.59
2023-02-02T02:54:36.189Z,97955.66
2023-02-02T02:57:37.058Z,97960.16
2023-02-02T03:00:16.269Z,97960.09
2023-02-02T03:03:09.514Z,97960.03
2023-02-02T03:05:39.133Z,97959.34
2023-02-02T03:08:28.320Z,97952.59
2023-02-02T03:10:59.089Z,97964.97
2023-02-02T03:13:27.535Z,97959.00
2023-02-02T03:15:55.497Z,97954.28
2023-02-02T03:18:27.590Z,97956.78
2023-02-02T03:20:55.031Z,97958.50
2023-02-02T03:23:22.967Z,97954.56
2023-02-02T03:25:50.823Z,97959.16
2023-02-02T03:28:19.734Z,97959.75
2023-02-02T03:30:48.764Z,97968.25
2023-02-02T03:33:16.782Z,97959.53
2023-02-02T03:35:44.019Z,97953.34
2023-02-02T03:38:12.722Z,97957.03
2023-02-02T03:40:40.800Z,97953.16
2023-02-02T03:43:08.139Z,97959.72
2023-02-02T03:45:35.681Z,97979.81
2023-02-02T03:48:07.347Z,97982.31
2023-02-02T03:50:34.947Z,97965.72
2023-02-02T03:53:02.166Z,97974.31
2023-02-02T03:55:29.376Z,97969.56
2023-02-02T03:57:56.599Z,97966.78
2023-02-02T04:00:23.889Z,97978.53
2023-02-02T04:02:51.136Z,97979.53
2023-02-02T04:05:18.241Z,97999.63
2023-02-02T04:07:45.380Z,98001.06
2023-02-02T04:10:12.794Z,97993.28
2023-02-02T04:12:39.894Z,97994.50
2023-02-02T04:15:08.227Z,97994.84
2023-02-02T04:17:35.670Z,97983.53
2023-02-02T04:20:06.440Z,97981.56
2023-02-02T04:22:34.293Z,97974.25
2023-02-02T04:25:01.450Z,97985.97
2023-02-02T04:27:31.689Z,97974.38
2023-02-02T04:29:58.916Z,97980.47
2023-02-02T04:32:26.167Z,97979.28
2023-02-02T04:34:53.311Z,97976.69
2023-02-02T04:37:20.521Z,97986.84
2023-02-02T04:39:49.268Z,97986.75
2023-02-02T04:42:16.490Z,97992.84
2023-02-02T04:44:45.982Z,97993.72
2023-02-02T04:47:13.309Z,97990.56
2023-02-02T04:49:40.571Z,98002.38
2023-02-02T04:52:08.030Z,97996.91
2023-02-02T04:54:35.232Z,97995.09
2023-02-02T04:57:02.417Z,97988.03
2023-02-02T04:59:30.316Z,98003.34
2023-02-02T05:02:01.098Z,98011.72
2023-02-02T05:04:28.838Z,98014.69
2023-02-02T05:06:56.023Z,98016.22
2023-02-02T05:09:23.279Z,98013.50
2023-02-02T05:11:50.420Z,98000.72
2023-02-02T05:14:18.601Z,97995.44
2023-02-02T05:16:46.183Z,97985.94
2023-02-02T05:19:13.553Z,97993.19
2023-02-02T05:21:40.685Z,97990.63
2023-02-02T05:24:08.049Z,97980.47
2023-02-02T05:26:35.301Z,97989.50
2023-02-02T05:29:03.031Z,97996.69
2023-02-02T05:31:31.509Z,97995.03
2023-02-02T05:33:59.276Z,98003.66
2023-02-02T05:36:26.814Z,97993.88
2023-02-02T05:38:54.109Z,97997.69
2023-02-02T05:41:21.246Z,97997.44
2023-02-02T05:43:48.385Z,98022.91
2023-02-02T05:46:15.613Z,98026.19
2023-02-02T05:48:42.802Z,98017.53
2023-02-02T05:51:22.283Z,98023.78
2023-02-02T05:53:49.500Z,98014.09
2023-02-02T05:56:16.924Z,98008.81
2023-02-02T05:58:47.397Z,98005.94
2023-02-02T06:01:14.778Z,98014.13
2023-02-02T06:03:42.433Z,98022.31
2023-02-02T06:06:09.625Z,98030.25
2023-02-02T06:08:37.320Z,98021.84
2023-02-02T06:11:17.561Z,98025.94
2023-02-02T06:13:46.172Z,98032.63
2023-02-02T06:16:13.929Z,98028.38
2023-02-02T06:18:41.281Z,98034.06
2023-02-02T06:21:08.799Z,98028.38
2023-02-02T06:23:36.413Z,98030.69
2023-02-02T06:26:04.803Z,98040.13
2023-02-02T06:28:32.365Z,98044.63
2023-02-02T06:31:12.050Z,98058.09
2023-02-02T06:33:39.303Z,98053.78
2023-02-02T06:36:07.543Z,98070.75
2023-02-02T06:38:34.925Z,98084.28
2023-02-02T06:41:03.380Z,98086.91
2023-02-02T06:43:31.436Z,98080.78
2023-02-02T06:46:00.334Z,98087.38
2023-02-02T06:48:28.605Z,98078.59
2023-02-02T06:50:59.817Z,98069.66
2023-02-02T06:53:27.606Z,98077.31
2023-02-02T06:56:03.582Z,98067.44
2023-02-02T06:58:32.355Z,98059.69
2023-02-02T07:01:17.369Z,98061.75
2023-02-02T07:03:49.403Z,98055.94
2023-02-02T07:06:23.859Z,98062.91
2023-02-02T07:09:02.166Z,98086.53
2023-02-02T07:11:34.596Z,98102.25
2023-02-02T07:14:03.730Z,98092.16
2023-02-02T07:16:32.487Z,98080.16
2023-02-02T07:18:59.722Z,98074.91
2023-02-02T07:21:35.906Z,98067.53
2023-02-02T07:24:05.548Z,98072.03
2023-02-02T07:26:35.922Z,98069.22
2023-02-02T07:29:04.713Z,98070.75
2023-02-02T07:31:36.062Z,98070.19
2023-02-02T07:34:04.312Z,98069.84
2023-02-02T07:36:31.574Z,98072.03
2023-02-02T07:38:59.863Z,98071.50
2023-02-02T07:41:28.601Z,98064.03
2023-02-02T07:43:55.766Z,98079.72
2023-02-02T07:46:23.994Z,98079.91
2023-02-02T07:48:58.297Z,98071.50
2023-02-02T07:51:26.935Z,98060.06
2023-02-02T07:54:01.150Z,98071.34
2023-02-02T07:56:28.800Z,98074.66
2023-02-02T07:58:56.988Z,98072.63
2023-02-02T08:01:26.780Z,98069.31
2023-02-02T08:04:01.998Z,98069.47
2023-02-02T08:06:35.061Z,98068.19
2023-02-02T08:09:06.284Z,98080.59
2023-02-02T08:11:35.898Z,98084.97
2023-02-02T08:14:06.521Z,98082.88
2023-02-02T08:16:34.804Z,98089.06
2023-02-02T08:19:02.063Z,98098.97
2023-02-02T08:21:39.996Z,98105.84
2023-02-02T08:24:07.788Z,98099.31
2023-02-02T08:26:35.899Z,98110.75
2023-02-02T08:29:09.291Z,98110.34
2023-02-02T08:31:42.039Z,98102.34
2023-02-02T08:34:10.900Z,98105.19
2023-02-02T08:36:39.102Z,98107.19
2023-02-02T08:39:12.575Z,98099.81
2023-02-02T08:41:43.628Z,98092.06
2023-02-02T08:44:16.349Z,98093.81
2023-02-02T08:46:47.822Z,98092.28
2023-02-02T08:49:16.356Z,98087.22
2023-02-02T08:51:44.921Z,98093.09
2023-02-02T08:54:13.067Z,98084.41
2023-02-02T08:56:44.111Z,98086.41
2023-02-02T08:59:12.502Z,98075.41
2023-02-02T09:01:41.278Z,98068.91
2023-02-02T09:04:18.649Z,98076.03
2023-02-02T09:06:46.227Z,98076.59
2023-02-02T09:09:16.613Z,98065.31
2023-02-02T09:11:44.890Z,98073.00
2023-02-02T09:14:14.397Z,98074.16
2023-02-02T09:17:51.324Z,98061.34
2023-02-02T09:20:23.058Z,98076.94
2023-02-02T09:22:52.962Z,98079.28
2023-02-02T09:25:21.540Z,98075.78
2023-02-02T09:27:49.420Z,98074.63
2023-02-02T09:30:20.577Z,98074.19
2023-02-02T09:32:51.041Z,98074.09
2023-02-02T09:35:23.183Z,98085.81
2023-02-02T09:37:59.915Z,98085.31
2023-02-02T09:40:43.681Z,98087.88
2023-02-02T09:44:07.762Z,98092.34
2023-02-02T09:46:59.665Z,98094.13
2023-02-02T09:49:43.483Z,98088.59
2023-02-02T09:52:36.918Z,98099.72
2023-02-02T09:55:29.593Z,98111.31
2023-02-02T09:58:22.287Z,98091.97
2023-02-02T10:01:15.954Z,98106.38
2023-02-02T10:04:14.953Z,98109.69
2023-02-02T10:06:49.689Z,98101.31
2023-02-02T10:09:17.054Z,98108.59
2023-02-02T10:12:05.279Z,98105.63
2023-02-02T10:15:32.841Z,98096.78
2023-02-02T10:18:33.615Z,98093.50
2023-02-02T10:21:05.167Z,98096.06
2023-02-02T10:23:46.080Z,98103.03
2023-02-02T10:26:22.858Z,98108.44
2023-02-02T10:29:19.782Z,98097.69
2023-02-02T10:32:40.810Z,98101.19
2023-02-02T10:35:22.779Z,98098.56
2023-02-02T10:38:12.180Z,98100.78
2023-02-02T10:40:52.688Z,98105.44
2023-02-02T10:44:00.595Z,98099.38
2023-02-02T10:46:47.693Z,98088.31
2023-02-02T10:49:21.559Z,98086.16
2023-02-02T10:52:08.279Z,98076.19
2023-02-02T10:55:26.798Z,98063.66
2023-02-02T10:58:18.876Z,98073.88
2023-02-02T11:00:51.167Z,98065.84
2023-02-02T11:03:23.361Z,98059.13
2023-02-02T11:06:10.237Z,98050.91
2023-02-02T11:08:41.212Z,98035.53
2023-02-02T11:11:28.689Z,98022.63
2023-02-02T11:14:10.230Z,98034.47
2023-02-02T11:16:46.794Z,98041.81
2023-02-02T11:19:59.932Z,98030.09
2023-02-02T11:22:39.327Z,98017.13
2023-02-02T11:25:40.217Z,98013.13
2023-02-02T11:32:33.145Z,98019.72
2023-02-02T11:35:08.967Z,98015.28
2023-02-02T11:37:42.607Z,98008.72
2023-02-02T11:40:31.191Z,98021.88
2023-02-02T11:43:03.430Z,98014.56
2023-02-02T11:45:42.586Z,97991.91
2023-02-02T11:48:22.994Z,98001.09
2023-02-02T11:51:00.232Z,97996.88
2023-02-02T11:53:47.949Z,98003.66
2023-02-02T11:56:28.295Z,98005.16
2023-02-02T11:59:04.126Z,97993.16
2023-02-02T12:01:49.277Z,97989.13
2023-02-02T12:04:18.056Z,97989.50
2023-02-02T12:06:45.917Z,97986.63
2023-02-02T12:09:25.772Z,97988.44
2023-02-02T12:12:00.080Z,97986.22
2023-02-02T12:15:15.657Z,97989.31
2023-02-02T12:18:33.362Z,97978.34
2023-02-02T12:21:28.813Z,97963.97
2023-02-02T12:24:25.883Z,97983.63
2023-02-02T12:27:29.764Z,97985.28
2023-02-02T12:30:31.619Z,97977.84
2023-02-02T12:33:36.399Z,97976.97
2023-02-02T12:36:30.735Z,97965.09
2023-02-02T12:39:11.157Z,97974.53
2023-02-02T12:42:07.948Z,97952.13
2023-02-02T12:45:03.593Z,97961.63
2023-02-02T12:47:57.205Z,97964.63
2023-02-02T12:51:21.054Z,97951.44
2023-02-02T12:54:34.585Z,97944.50
2023-02-02T12:57:06.320Z,97937.31
2023-02-02T13:00:13.661Z,97950.66
2023-02-02T13:02:58.380Z,97951.56
2023-02-02T13:06:26.405Z,97936.31
2023-02-02T13:09:45.018Z,97931.03
2023-02-02T13:12:24.414Z,97928.75
2023-02-02T13:15:02.674Z,97944.78
2023-02-02T13:17:53.998Z,97944.28
2023-02-02T13:20:56.560Z,97949.50
2023-02-02T13:23:49.742Z,97945.66
2023-02-02T13:26:24.183Z,97943.56
2023-02-02T13:29:10.690Z,97950.28
2023-02-02T13:31:53.851Z,97952.09
2023-02-02T13:34:56.572Z,97951.28
2023-02-02T13:38:07.641Z,97949.34
2023-02-02T13:40:45.380Z,97953.59
2023-02-02T13:43:35.058Z,97956.00
2023-02-02T13:46:43.783Z,97940.91
2023-02-02T13:49:36.211Z,97947.75
2023-02-02T13:52:40.309Z,97951.09
2023-02-02T13:55:53.232Z,97951.50
2023-02-02T13:58:56.604Z,97970.44
2023-02-02T14:01:37.056Z,97976.41
2023-02-02T14:04:05.708Z,97969.63
2023-02-02T14:07:00.100Z,97965.97
2023-02-02T14:09:34.558Z,97975.94
2023-02-02T14:12:11.755Z,97971.63
2023-02-02T14:14:50.737Z,97965.88
2023-02-02T14:17:24.343Z,97974.38
2023-02-02T14:20:06.693Z,97974.09
2023-02-02T14:22:51.561Z,97979.22
2023-02-02T14:25:33.925Z,97967.97
2023-02-02T14:28:14.661Z,97970.72
2023-02-02T14:31:25.753Z,97972.53
2023-02-02T14:34:35.821Z,97979.22
2023-02-02T14:37:24.888Z,97977.28
2023-02-02T14:40:13.032Z,97974.97
2023-02-02T14:43:20.208Z,97982.88
2023-02-02T14:46:10.886Z,97979.34
2023-02-02T14:48:40.056Z,97969.66
2023-02-02T14:51:24.466Z,97980.31
2023-02-02T14:54:01.274Z,97986.91
2023-02-02T14:57:05.111Z,97984.13
2023-02-02T14:59:40.563Z,97985.84
2023-02-02T15:02:38.163Z,97981.78
2023-02-02T15:05:38.971Z,98004.03
2023-02-02T15:08:22.736Z,97992.25
2023-02-02T15:10:56.829Z,98001.25
2023-02-02T15:13:37.824Z,98003.88
2023-02-02T15:16:21.226Z,98001.47
2023-02-02T15:19:04.281Z,97999.88
2023-02-02T15:21:36.492Z,98006.16
2023-02-02T15:24:06.190Z,97997.63
2023-02-02T15:26:43.112Z,98011.28
2023-02-02T15:29:46.089Z,98010.44
2023-02-02T15:32:23.094Z,98013.81
2023-02-02T15:34:58.356Z,98010.59
2023-02-02T15:37:40.271Z,98022.97
2023-02-02T15:40:26.375Z,98021.94
2023-02-02T15:43:04.494Z,98020.69
2023-02-02T15:45:32.545Z,98017.69
2023-02-02T15:48:04.218Z,98029.91
2023-02-02T15:50:31.622Z,98034.69
2023-02-02T15:52:59.025Z,98031.22
2023-02-02T15:55:36.575Z,98038.97
2023-02-02T15:58:23.893Z,98034.59
2023-02-02T16:01:14.580Z,98047.09
2023-02-02T16:03:58.492Z,98042.47
2023-02-02T16:06:25.920Z,98046.44
2023-02-02T16:08:53.070Z,98041.22
2023-02-02T16:11:23.975Z,98056.19
2023-02-02T16:14:10.524Z,98052.69
2023-02-02T16:16:40.356Z,98069.28
2023-02-02T16:19:21.607Z,98058.06
2023-02-02T16:21:58.579Z,98061.47
2023-02-02T16:24:49.521Z,98074.03
2023-02-02T16:27:25.876Z,98085.97
2023-02-02T16:29:55.991Z,98089.97
2023-02-02T16:32:28.169Z,98092.69
2023-02-02T16:34:55.760Z,98099.50
2023-02-02T16:37:27.811Z,98103.69
2023-02-02T16:40:25.891Z,98106.22
2023-02-02T16:43:28.641Z,98103.25
2023-02-02T16:46:17.589Z,98109.28
2023-02-02T16:49:01.041Z,98121.94
2023-02-02T16:51:33.731Z,98131.78
2023-02-02T16:54:05.596Z,98122.22
2023-02-02T16:56:46.642Z,98133.25
2023-02-02T16:59:33.903Z,98145.78
2023-02-02T17:02:21.144Z,98154.84
2023-02-02T17:04:56.005Z,98162.09
2023-02-02T17:07:24.008Z,98161.16
2023-02-02T17:10:13.189Z,98170.03
2023-02-02T17:12:40.392Z,98172.22
2023-02-02T17:15:19.715Z,98180.38
2023-02-02T17:17:49.446Z,98191.44
2023-02-02T17:20:19.687Z,98206.28
2023-02-02T17:23:09.998Z,98211.31
2023-02-02T17:25:44.541Z,98224.72
2023-02-02T17:28:17.176Z,98221.09
2023-02-02T17:30:48.646Z,98214.66
2023-02-02T17:33:19.384Z,98211.31
2023-02-02T17:35:54.717Z,98205.88
2023-02-02T17:38:27.981Z,98206.63
2023-02-02T17:41:01.316Z,98213.47
2023-02-02T17:43:30.407Z,98203.38
2023-02-02T17:46:03.540Z,98205.59
2023-02-02T17:48:30.837Z,98198.44
2023-02-02T17:50:57.931Z,98205.16
2023-02-02T17:53:25.015Z,98205.13
2023-02-02T17:55:52.423Z,98215.00
2023-02-02T17:58:19.839Z,98214.31
2023-02-02T18:00:53.968Z,98221.53
2023-02-02T18:03:34.388Z,98219.47
2023-02-02T18:06:02.792Z,98217.28
2023-02-02T18:08:32.189Z,98214.38
2023-02-02T18:10:59.917Z,98211.13
2023-02-02T18:13:30.559Z,98213.34
2023-02-02T18:15:59.855Z,98221.69
2023-02-02T18:18:29.960Z,98221.81
2023-02-02T18:20:58.635Z,98225.91
2023-02-02T18:23:25.991Z,98219.13
2023-02-02T18:25:53.240Z,98200.75
2023-02-02T18:28:20.512Z,98197.03
2023-02-02T18:30:47.940Z,98205.22
2023-02-02T18:33:19.868Z,98214.44
2023-02-02T18:35:48.704Z,98211.50
2023-02-02T18:38:16.015Z,98217.03
2023-02-02T18:40:43.247Z,98217.25
2023-02-02T18:43:10.514Z,98220.47
2023-02-02T18:45:37.722Z,98224.91
2023-02-02T18:48:04.923Z,98227.69
2023-02-02T18:50:32.151Z,98217.09
2023-02-02T18:52:59.269Z,98217.75
2023-02-02T18:55:26.936Z,98217.16
2023-02-02T18:57:54.424Z,98218.88
2023-02-02T19:00:22.247Z,98221.69
2023-02-02T19:02:49.478Z,98220.94
2023-02-02T19:05:35.618Z,98221.31
2023-02-02T19:08:04.140Z,98224.94
2023-02-02T19:10:31.717Z,98232.00
2023-02-02T19:13:21.945Z,98239.53
2023-02-02T19:15:51.016Z,98242.34
2023-02-02T19:18:22.564Z,98243.06
2023-02-02T19:20:52.646Z,98243.34
2023-02-02T19:23:23.837Z,98255.13
2023-02-02T19:25:54.990Z,98240.78
2023-02-02T19:28:31.289Z,98247.13
2023-02-02T19:31:02.058Z,98246.19
2023-02-02T19:33:46.504Z,98249.97
2023-02-02T19:36:27.884Z,98244.28
2023-02-02T19:39:31.406Z,98248.06
2023-02-02T19:42:00.799Z,98261.00
2023-02-02T19:44:34.184Z,98253.66
2023-02-02T19:47:02.851Z,98251.03
2023-02-02T19:49:37.278Z,98260.03
2023-02-02T19:52:16.695Z,98258.31
2023-02-02T19:54:45.206Z,98263.25
2023-02-02T19:57:43.272Z,98267.34
2023-02-02T20:00:27.911Z,98261.53
2023-02-02T20:03:09.999Z,98259.84
2023-02-02T20:05:47.028Z,98265.41
2023-02-02T20:08:43.908Z,98257.78
2023-02-02T20:11:32.801Z,98271.09
2023-02-02T20:14:03.223Z,98269.03
2023-02-02T20:16:42.118Z,98269.69
2023-02-02T20:19:22.688Z,98271.19
2023-02-02T20:21:51.763Z,98269.72
2023-02-02T20:24:26.227Z,98273.31
2023-02-02T20:26:58.139Z,98277.69
2023-02-02T20:29:41.823Z,98282.16
2023-02-02T20:32:26.702Z,98291.66
2023-02-02T20:34:59.925Z,98292.31
2023-02-02T20:37:36.034Z,98302.88
2023-02-02T20:40:21.537Z,98311.94
2023-02-02T20:42:49.861Z,98314.50
2023-02-02T20:45:17.919Z,98322.31
2023-02-02T20:47:46.063Z,98329.75
2023-02-02T20:50:18.193Z,98335.03
2023-02-02T20:52:45.585Z,98332.13
2023-02-02T20:55:12.731Z,98344.88
2023-02-02T20:57:40.492Z,98334.44
2023-02-02T21:00:10.872Z,98340.56
2023-02-02T21:02:38.376Z,98329.16
2023-02-02T21:05:05.947Z,98326.78
2023-02-02T21:07:33.026Z,98321.78
2023-02-02T21:10:00.177Z,98317.25
2023-02-02T21:12:27.371Z,98324.72
2023-02-02T21:14:54.707Z,98328.72
2023-02-02T21:17:21.909Z,98327.50
2023-02-02T21:19:49.232Z,98329.31
2023-02-02T21:22:16.423Z,98324.84
2023-02-02T21:24:43.540Z,98321.94
2023-02-02T21:27:10.725Z,98324.91
2023-02-02T21:29:38.762Z,98320.81
2023-02-02T21:32:06.363Z,98321.66
2023-02-02T21:34:33.585Z,98318.78
2023-02-02T21:37:00.770Z,98320.47
2023-02-02T21:39:37.521Z,98323.47
2023-02-02T21:42:20.965Z,98325.38
2023-02-02T21:44:53.887Z,98334.22
2023-02-02T21:47:49.752Z,98324.00
2023-02-02T21:50:26.006Z,98333.41
2023-02-02T21:53:21.495Z,98341.63
2023-02-02T21:55:56.769Z,98346.03
2023-02-02T21:58:35.847Z,98351.25
2023-02-02T22:01:36.290Z,98356.63
2023-02-02T22:04:03.505Z,98350.25
2023-02-02T22:06:36.324Z,98353.16
2023-02-02T22:09:12.597Z,98356.38
2023-02-02T22:12:02.131Z,98360.91
2023-02-02T22:14:43.745Z,98366.31
2023-02-02T22:17:40.219Z,98358.16
2023-02-02T22:20:16.357Z,98356.34
2023-02-02T22:22:48.179Z,98359.16
2023-02-02T22:25:18.425Z,98367.78
2023-02-02T22:27:57.674Z,98364.06
2023-02-02T22:30:39.908Z,98368.44
2023-02-02T22:33:12.582Z,98375.84
2023-02-02T22:35:41.600Z,98370.38
2023-02-02T22:38:10.827Z,98366.72
2023-02-02T22:40:38.151Z,98368.69
2023-02-02T22:43:07.962Z,98372.34
2023-02-02T22:45:35.703Z,98376.44
2023-02-02T22:48:02.794Z,98386.22
2023-02-02T22:50:32.303Z,98380.06
2023-02-02T22:53:00.012Z,98374.53
2023-02-02T22:55:27.384Z,98373.28
2023-02-02T22:57:55.045Z,98375.63
2023-02-02T23:00:33.157Z,98385.25
2023-02-02T23:03:00.776Z,98389.47
2023-02-02T23:05:28.821Z,98396.59
2023-02-02T23:07:56.870Z,98395.94
2023-02-02T23:10:30.181Z,98382.16
2023-02-02T23:12:58.744Z,98370.88
2023-02-02T23:15:27.217Z,98365.63
2023-02-02T23:17:55.140Z,98360.53
2023-02-02T23:20:22.390Z,98357.22
2023-02-02T23:22:50.586Z,98351.63
2023-02-02T23:25:18.925Z,98356.53
2023-02-02T23:27:46.155Z,98353.84
2023-02-02T23:30:15.923Z,98356.19
2023-02-02T23:32:43.330Z,98345.31
2023-02-02T23:35:11.129Z,98353.03
2023-02-02T23:37:38.999Z,98355.44
2023-02-02T23:40:06.625Z,98355.97
2023-02-02T23:42:34.127Z,98356.88
2023-02-02T23:45:01.284Z,98367.00
2023-02-02T23:47:28.611Z,98364.22
2023-02-02T23:49:56.174Z,98365.44
2023-02-02T23:52:23.695Z,98360.88
2023-02-02T23:54:52.873Z,98358.63
2023-02-02T23:57:20.572Z,98358.72
2023-02-02T23:59:47.607Z,98354.69
